Time;durP1;ratioP1;P1;durP2;ratioP2;P2;SDS_P1;SDS_P2;PMS_P1;PMS_P2;Temp;Humidity;BMP_temperature;BMP_pressure;BME280_temperature;BME280_humidity;BME280_pressure;Samples;Min_cycle;Max_cycle;Signal;HPM_P1;HPM_P2
2021/12/10 00:00:52;;;;;;;14.65;8.35;;;;;;;3.39;100.00;99038.94;4967628;28;20053;-53
2021/12/10 00:03:50;;;;;;;11.65;7.90;;;;;;;3.36;100.00;99034.69;4959556;28;20065;-52
2021/12/10 00:06:34;;;;;;;13.40;7.50;;;;;;;3.38;100.00;99021.53;4964990;28;20049;-54
2021/12/10 00:09:18;;;;;;;14.95;8.27;;;;;;;3.37;100.00;99018.06;4967758;28;20096;-51
2021/12/10 00:11:55;;;;;;;14.55;7.70;;;;;;;3.35;100.00;99014.66;4964057;28;20062;-52
2021/12/10 00:14:30;;;;;;;14.52;8.57;;;;;;;3.30;100.00;99006.16;4948231;28;20039;-53
2021/12/10 00:17:03;;;;;;;13.38;8.23;;;;;;;3.29;100.00;99008.84;4966780;28;20082;-53
2021/12/10 00:19:43;;;;;;;15.10;8.85;;;;;;;3.25;100.00;98999.38;4964411;28;20054;-53
2021/12/10 00:22:26;;;;;;;18.98;8.45;;;;;;;3.25;100.00;98995.00;4963350;28;20042;-52
2021/12/10 00:24:53;;;;;;;12.20;7.75;;;;;;;3.27;100.00;98995.81;4959658;28;20042;-53
2021/12/10 00:27:32;;;;;;;16.10;8.73;;;;;;;3.27;100.00;98987.09;4960482;28;20049;-55
2021/12/10 00:30:18;;;;;;;14.80;8.30;;;;;;;3.26;100.00;98988.03;4968457;28;20042;-53
2021/12/10 00:33:03;;;;;;;14.60;8.38;;;;;;;3.23;100.00;98978.53;4960970;28;20053;-52
2021/12/10 00:35:32;;;;;;;17.13;7.95;;;;;;;3.29;100.00;98972.22;4963662;28;20066;-53
2021/12/10 00:37:59;;;;;;;16.13;8.02;;;;;;;3.26;100.00;98959.25;4965252;28;20042;-53
2021/12/10 00:40:26;;;;;;;16.20;7.85;;;;;;;3.28;100.00;98967.88;4963744;28;20461;-53
2021/12/10 00:43:00;;;;;;;17.98;8.10;;;;;;;3.34;100.00;98965.00;4962224;28;20051;-52
2021/12/10 00:45:30;;;;;;;19.08;7.70;;;;;;;3.35;100.00;98953.63;4965583;28;20535;-53
2021/12/10 00:47:59;;;;;;;20.45;7.18;;;;;;;3.38;100.00;98946.50;4966776;28;20513;-52
2021/12/10 00:50:35;;;;;;;15.82;7.13;;;;;;;3.40;100.00;98949.06;4961193;28;20058;-53
2021/12/10 00:53:05;;;;;;;17.48;7.68;;;;;;;3.36;100.00;98939.63;4961564;28;20504;-53
2021/12/10 00:55:49;;;;;;;20.35;7.80;;;;;;;3.35;100.00;98943.16;4956116;28;20054;-53
2021/12/10 00:58:30;;;;;;;14.18;7.47;;;;;;;3.34;100.00;98936.22;4965703;28;20050;-54
2021/12/10 01:01:14;;;;;;;18.27;8.38;;;;;;;3.34;100.00;98936.22;4960959;28;20061;-53
2021/12/10 01:04:27;;;;;;;16.33;8.05;;;;;;;3.34;100.00;98928.38;4949035;28;20058;-53
2021/12/10 01:07:00;;;;;;;18.50;7.53;;;;;;;3.37;100.00;98925.63;4961897;28;20563;-51
2021/12/10 01:09:39;;;;;;;18.73;7.43;;;;;;;3.43;100.00;98920.16;4961630;28;20146;-54
2021/12/10 01:12:41;;;;;;;21.70;6.95;;;;;;;3.44;100.00;98916.63;4962347;28;20065;-53
2021/12/10 01:15:34;;;;;;;13.05;7.22;;;;;;;3.46;100.00;98923.47;4965040;28;20042;-53
2021/12/10 01:25:24;;;;;;;20.95;7.00;;;;;;;3.48;100.00;98910.34;4584195;27;15343076;-52
2021/12/10 01:28:07;;;;;;;17.13;7.47;;;;;;;3.49;100.00;98910.28;5116693;28;20044;-52
2021/12/10 01:30:46;;;;;;;14.52;7.18;;;;;;;3.50;100.00;98901.50;5116383;28;20044;-52
2021/12/10 01:33:23;;;;;;;14.23;7.03;;;;;;;3.51;100.00;98889.28;5112440;28;20062;-52
2021/12/10 01:35:56;;;;;;;20.27;7.22;;;;;;;3.53;100.00;98884.84;5112291;28;20059;-54
2021/12/10 01:38:43;;;;;;;20.65;7.05;;;;;;;3.50;100.00;98883.19;5115520;28;20419;-52
2021/12/10 01:41:16;;;;;;;21.23;6.82;;;;;;;3.52;100.00;98873.50;5107375;28;20137;-51
2021/12/10 01:43:51;;;;;;;23.48;7.53;;;;;;;3.54;100.00;98865.59;5113948;27;20058;-52
2021/12/10 01:46:33;;;;;;;16.38;7.07;;;;;;;3.57;100.00;98862.84;5118816;27;20056;-52
2021/12/10 01:49:04;;;;;;;19.20;7.80;;;;;;;3.53;100.00;98854.28;5117197;28;20653;-51
2021/12/10 01:51:36;;;;;;;19.13;7.95;;;;;;;3.47;100.00;98849.28;5117233;27;20500;-53
2021/12/10 01:54:18;;;;;;;20.40;6.88;;;;;;;3.49;100.00;98842.22;5115684;28;20051;-53
2021/12/10 01:56:47;;;;;;;15.30;7.20;;;;;;;3.49;100.00;98839.63;5113952;28;20120;-54
2021/12/10 01:59:20;;;;;;;21.67;7.45;;;;;;;3.46;100.00;98828.44;5118836;27;20066;-52
2021/12/10 02:02:10;;;;;;;18.90;7.77;;;;;;;3.47;100.00;98841.44;5112924;28;20052;-53
2021/12/10 02:04:53;;;;;;;18.45;6.80;;;;;;;3.47;100.00;98832.75;5111377;28;20050;-52
2021/12/10 02:07:25;;;;;;;16.52;7.60;;;;;;;3.48;100.00;98829.22;5115102;28;20081;-51
2021/12/10 02:09:53;;;;;;;16.38;7.18;;;;;;;3.47;100.00;98830.13;5119521;27;20440;-53
2021/12/10 02:12:21;;;;;;;21.63;7.53;;;;;;;3.44;100.00;98819.81;5112845;27;20050;-52
2021/12/10 02:15:03;;;;;;;24.20;7.63;;;;;;;3.42;100.00;98825.09;5109309;28;20051;-53
2021/12/10 02:17:46;;;;;;;19.02;7.95;;;;;;;3.47;100.00;98811.81;5117047;27;20051;-51
2021/12/10 02:20:25;;;;;;;19.42;7.30;;;;;;;3.40;100.00;98806.00;5115494;28;20047;-53
2021/12/10 02:22:57;;;;;;;15.63;6.72;;;;;;;3.38;100.00;98804.38;5114047;27;20419;-53
2021/12/10 02:25:41;;;;;;;22.48;7.43;;;;;;;3.39;100.00;98801.69;5114058;28;20051;-53
2021/12/10 02:28:13;;;;;;;19.48;7.22;;;;;;;3.35;100.00;98797.50;5117299;28;20066;-53
2021/12/10 02:30:50;;;;;;;17.13;7.18;;;;;;;3.34;100.00;98793.19;5108974;28;20048;-51
2021/12/10 02:33:30;;;;;;;19.65;6.47;;;;;;;3.36;100.00;98787.88;5117132;28;20143;-52
2021/12/10 02:35:59;;;;;;;19.85;7.18;;;;;;;3.38;100.00;98778.19;5102950;28;20141;-52
2021/12/10 02:38:34;;;;;;;23.77;6.95;;;;;;;3.35;100.00;98776.56;5104888;28;20093;-52
2021/12/10 02:41:19;;;;;;;18.00;6.63;;;;;;;3.38;100.00;98760.75;5104061;28;20067;-51
2021/12/10 02:43:47;;;;;;;14.38;6.03;;;;;;;3.38;100.00;98760.75;5101579;28;20054;-53
2021/12/10 02:46:14;;;;;;;15.38;6.03;;;;;;;3.28;100.00;98738.53;5111518;28;20048;-51
2021/12/10 02:48:49;;;;;;;14.20;5.97;;;;;;;3.35;100.00;98749.56;5105725;28;20055;-51
2021/12/10 02:51:16;;;;;;;17.73;5.63;;;;;;;3.33;100.00;98749.63;5104124;28;20049;-53
2021/12/10 02:53:45;;;;;;;13.02;4.90;;;;;;;3.32;100.00;98733.97;5102857;28;20035;-56
2021/12/10 02:56:27;;;;;;;14.85;4.90;;;;;;;3.36;100.00;98725.09;5107184;28;20044;-54
2021/12/10 02:59:02;;;;;;;19.73;4.53;;;;;;;3.36;100.00;98730.31;5101364;28;20047;-53
2021/12/10 03:01:51;;;;;;;7.82;3.92;;;;;;;3.39;100.00;98724.97;5101148;28;20540;-52
2021/12/10 03:04:21;;;;;;;12.75;3.97;;;;;;;3.41;100.00;98721.38;5101726;28;20126;-53
2021/12/10 03:06:57;;;;;;;15.73;4.13;;;;;;;3.43;100.00;98722.16;5097427;28;20051;-53
2021/12/10 03:09:25;;;;;;;8.52;3.60;;;;;;;3.47;100.00;98722.84;5101498;28;20075;-53
2021/12/10 03:12:00;;;;;;;10.85;3.90;;;;;;;3.47;100.00;98722.84;5094583;28;20134;-53
2021/12/10 03:14:34;;;;;;;13.82;3.75;;;;;;;3.50;100.00;98725.31;5098803;28;20039;-54
2021/12/10 03:17:11;;;;;;;18.65;3.97;;;;;;;3.50;100.00;98718.31;5099731;28;20052;-51
2021/12/10 03:19:45;;;;;;;19.83;3.92;;;;;;;3.55;99.70;98720.75;5100569;28;20043;-53
2021/12/10 03:22:17;;;;;;;12.43;3.53;;;;;;;3.59;99.74;98713.59;5096464;28;20051;-52
2021/12/10 03:24:44;;;;;;;8.50;3.15;;;;;;;3.62;98.25;98703.81;5092242;28;20047;-53
2021/12/10 03:27:15;;;;;;;11.05;3.75;;;;;;;3.58;97.53;98694.44;5101910;28;20931;-53
2021/12/10 03:29:44;;;;;;;12.77;3.78;;;;;;;3.56;97.81;98685.81;5100662;28;20442;-52
2021/12/10 03:32:18;;;;;;;9.88;3.00;;;;;;;3.58;97.83;98689.19;5102102;28;20429;-53
2021/12/10 03:35:01;;;;;;;12.98;3.60;;;;;;;3.59;96.23;98687.44;5096073;28;20048;-53
2021/12/10 03:37:28;;;;;;;13.38;3.65;;;;;;;3.54;96.25;98687.63;5115855;27;20079;-53
2021/12/10 03:39:57;;;;;;;12.77;2.60;;;;;;;3.57;95.70;98684.88;5102311;28;20492;-54
2021/12/10 03:42:26;;;;;;;10.63;2.95;;;;;;;3.56;95.26;98675.31;5101017;28;20044;-54
2021/12/10 03:45:06;;;;;;;7.70;2.50;;;;;;;3.57;94.70;98670.94;5096375;28;20071;-52
2021/12/10 03:47:47;;;;;;;9.63;3.28;;;;;;;3.57;94.99;98669.19;5091587;28;20052;-53
2021/12/10 03:50:29;;;;;;;8.93;2.65;;;;;;;3.56;94.89;98664.88;5099770;28;20051;-53
2021/12/10 03:52:56;;;;;;;11.43;2.67;;;;;;;3.56;94.62;98659.63;5095659;28;20047;-55
2021/12/10 03:55:33;;;;;;;8.57;2.58;;;;;;;3.52;94.59;98648.44;5094503;28;20126;-52
2021/12/10 03:58:17;;;;;;;9.35;2.72;;;;;;;3.49;93.85;98643.34;5102753;28;20058;-51
2021/12/10 04:01:04;;;;;;;12.70;2.75;;;;;;;3.42;94.33;98641.94;5099132;28;20104;-52
2021/12/10 04:03:32;;;;;;;11.07;3.05;;;;;;;3.35;94.11;98635.28;5101161;28;20055;-58
2021/12/10 04:05:58;;;;;;;4.90;2.33;;;;;;;3.30;94.33;98631.19;5097728;28;20055;-51
2021/12/10 04:08:28;;;;;;;9.13;2.60;;;;;;;3.26;95.09;98627.03;5102609;28;20039;-53
2021/12/10 04:10:55;;;;;;;7.28;2.92;;;;;;;3.21;94.79;98628.97;5102984;28;20057;-55
2021/12/10 04:13:25;;;;;;;10.90;3.00;;;;;;;3.20;94.94;98622.06;5097121;27;20054;-52
2021/12/10 04:15:52;;;;;;;9.32;2.70;;;;;;;3.15;95.00;98610.03;5095702;28;20131;-52
2021/12/10 04:18:21;;;;;;;12.35;2.72;;;;;;;3.13;95.47;98608.44;5098715;28;20118;-54
2021/12/10 04:20:48;;;;;;;12.90;3.08;;;;;;;3.13;96.07;98618.88;5096521;28;20043;-53
2021/12/10 04:23:21;;;;;;;9.85;3.05;;;;;;;3.14;95.46;98615.34;5094423;28;20811;-53
2021/12/10 04:26:00;;;;;;;8.65;2.92;;;;;;;3.21;95.12;98614.13;5089004;28;20150;-51
2021/12/10 04:28:28;;;;;;;5.57;2.30;;;;;;;3.23;94.47;98608.84;5094853;28;20575;-53
2021/12/10 04:30:55;;;;;;;4.78;2.33;;;;;;;3.22;93.96;98608.00;5091755;28;20059;-54
2021/12/10 04:33:27;;;;;;;9.60;2.70;;;;;;;3.25;94.14;98607.00;5092338;28;20116;-53
2021/12/10 04:35:57;;;;;;;10.10;2.72;;;;;;;3.25;94.28;98601.78;5094790;28;20055;-53
2021/12/10 04:38:28;;;;;;;9.57;3.25;;;;;;;3.26;94.06;98599.09;5102874;28;20077;-52
2021/12/10 04:41:01;;;;;;;10.23;3.35;;;;;;;3.20;94.13;98598.50;5098996;28;20047;-52
2021/12/10 04:43:37;;;;;;;11.30;4.00;;;;;;;3.10;95.16;98588.47;5098416;28;20055;-53
2021/12/10 04:46:04;;;;;;;15.70;3.80;;;;;;;3.01;95.50;98580.19;5097467;28;20057;-54
2021/12/10 04:48:47;;;;;;;13.13;4.35;;;;;;;2.94;95.79;98582.25;5102628;28;20047;-53
2021/12/10 04:51:15;;;;;;;12.43;4.43;;;;;;;2.88;97.51;98586.88;5092819;28;20684;-51
2021/12/10 04:53:43;;;;;;;9.60;4.18;;;;;;;2.86;96.93;98588.72;5099828;28;20058;-53
2021/12/10 04:56:10;;;;;;;14.85;4.28;;;;;;;2.85;96.37;98587.88;5101107;28;20047;-53
2021/12/10 04:58:37;;;;;;;15.63;4.60;;;;;;;2.72;96.98;98565.81;5094174;28;20055;-52
2021/12/10 05:01:09;;;;;;;17.70;5.00;;;;;;;2.75;96.38;98577.00;5094896;28;20116;-53
2021/12/10 05:03:36;;;;;;;14.13;4.75;;;;;;;2.71;97.41;98575.41;5100671;28;20039;-54
2021/12/10 05:06:16;;;;;;;14.15;4.50;;;;;;;2.73;96.81;98576.19;5095158;28;20430;-54
2021/12/10 05:08:52;;;;;;;9.25;4.22;;;;;;;2.70;97.18;98565.88;5098192;28;20050;-52
2021/12/10 05:11:19;;;;;;;13.77;4.57;;;;;;;2.72;96.71;98552.75;5094817;28;20047;-53
2021/12/10 05:14:02;;;;;;;10.13;4.20;;;;;;;2.73;96.31;98559.69;5099533;28;20055;-54
2021/12/10 05:16:34;;;;;;;16.63;4.57;;;;;;;2.69;96.70;98556.34;5097308;28;20049;-54
2021/12/10 05:19:26;;;;;;;11.52;4.15;;;;;;;2.57;96.81;98546.44;5092497;28;20071;-52
2021/12/10 05:22:01;;;;;;;12.52;4.47;;;;;;;2.52;97.74;98552.81;5057687;28;20054;-52
2021/12/10 05:24:31;;;;;;;11.80;4.05;;;;;;;2.42;97.97;98545.34;5097115;28;20082;-51
2021/12/10 05:26:59;;;;;;;18.20;4.70;;;;;;;2.41;98.55;98540.19;5095101;28;20055;-51
2021/12/10 05:29:41;;;;;;;13.40;4.57;;;;;;;2.37;98.94;98534.25;5100591;28;20058;-52
2021/12/10 05:32:17;;;;;;;10.52;4.15;;;;;;;2.36;98.45;98536.94;5101059;28;20054;-52
2021/12/10 05:34:49;;;;;;;10.10;4.00;;;;;;;2.34;98.67;98529.16;5096670;28;20050;-53
2021/12/10 05:37:18;;;;;;;10.15;3.97;;;;;;;2.30;98.80;98522.38;5095664;28;20052;-53
2021/12/10 05:39:53;;;;;;;10.60;4.00;;;;;;;2.17;98.95;98502.94;5099507;28;20048;-52
2021/12/10 05:42:34;;;;;;;10.65;4.22;;;;;;;2.22;98.69;98518.38;5095032;28;20070;-51
2021/12/10 05:45:10;;;;;;;10.48;4.38;;;;;;;2.15;99.23;98512.59;5097189;28;20086;-52
2021/12/10 05:47:37;;;;;;;11.00;4.40;;;;;;;2.10;99.06;98501.50;5096470;28;20063;-53
2021/12/10 05:50:11;;;;;;;14.05;4.80;;;;;;;2.07;100.00;98502.47;5095121;28;20048;-52
2021/12/10 05:52:38;;;;;;;10.73;4.68;;;;;;;2.07;99.39;98493.78;5097498;28;20051;-53
2021/12/10 05:55:12;;;;;;;11.60;4.40;;;;;;;2.08;100.00;98493.72;5094820;28;20062;-52
2021/12/10 05:57:39;;;;;;;13.45;4.47;;;;;;;2.06;99.50;98486.84;5092396;28;20068;-51
2021/12/10 06:00:14;;;;;;;10.68;4.15;;;;;;;2.05;99.84;98486.00;5094430;28;20055;-53
2021/12/10 06:02:44;;;;;;;10.65;4.40;;;;;;;2.07;99.16;98480.72;5094733;28;20109;-52
2021/12/10 06:05:14;;;;;;;9.82;4.45;;;;;;;2.05;99.10;98466.88;5092743;28;20071;-53
2021/12/10 06:07:47;;;;;;;10.50;4.30;;;;;;;2.02;98.76;98459.22;5093158;28;20048;-54
2021/12/10 06:10:17;;;;;;;14.27;4.25;;;;;;;2.00;99.22;98455.81;5097560;28;20048;-53
2021/12/10 06:12:47;;;;;;;10.95;4.90;;;;;;;1.98;98.93;98450.66;5098676;28;20047;-52
2021/12/10 06:15:18;;;;;;;11.90;4.68;;;;;;;1.98;99.34;98453.28;5102661;28;20044;-53
2021/12/10 06:17:46;;;;;;;10.25;4.88;;;;;;;2.02;99.21;98448.78;5099068;28;20047;-52
2021/12/10 06:20:21;;;;;;;11.30;4.70;;;;;;;2.03;98.01;98440.88;5100512;28;20044;-52
2021/12/10 06:22:51;;;;;;;7.53;4.35;;;;;;;2.01;97.93;98447.91;5102039;28;20048;-54
2021/12/10 06:25:40;;;;;;;11.52;4.20;;;;;;;1.94;98.20;98441.25;5095162;28;20135;-52
2021/12/10 06:28:13;;;;;;;11.02;4.78;;;;;;;1.97;98.33;98429.84;5100267;28;20050;-53
2021/12/10 06:30:48;;;;;;;9.50;4.78;;;;;;;1.95;97.86;98421.22;5103364;28;20415;-52
2021/12/10 06:33:23;;;;;;;11.00;4.25;;;;;;;1.94;97.97;98420.38;5097206;28;20496;-52
2021/12/10 06:36:04;;;;;;;7.05;4.57;;;;;;;1.94;98.50;98420.38;5098160;28;20047;-53
2021/12/10 06:38:34;;;;;;;;;;;;;;;1.90;98.40;98412.75;5100320;28;20051;-53
2021/12/10 06:41:03;;;;;;;10.40;4.25;;;;;;;1.87;98.71;98411.13;5099022;28;20019;-52
2021/12/10 06:43:31;;;;;;;11.63;4.65;;;;;;;1.90;98.22;98405.75;5103975;28;20051;-53
2021/12/10 06:46:06;;;;;;;9.68;4.53;;;;;;;1.87;98.59;98408.53;5097461;28;20051;-52
2021/12/10 06:48:38;;;;;;;6.35;3.90;;;;;;;1.86;98.31;98399.00;5098768;28;20117;-52
2021/12/10 06:51:18;;;;;;;12.05;4.95;;;;;;;1.84;98.31;98397.38;5101279;28;20048;-52
2021/12/10 06:53:49;;;;;;;10.77;4.47;;;;;;;1.84;98.03;98390.38;5098660;28;20563;-53
2021/12/10 06:56:18;;;;;;;8.90;4.35;;;;;;;1.83;97.75;98393.91;5097230;28;20234;-53
2021/12/10 06:58:55;;;;;;;12.85;4.68;;;;;;;1.87;97.90;98386.81;5094811;28;20055;-52
2021/12/10 07:01:38;;;;;;;11.45;4.53;;;;;;;1.91;96.87;98385.72;5097410;28;20056;-53
2021/12/10 07:04:15;;;;;;;8.13;3.95;;;;;;;1.88;97.15;98386.72;5093444;28;20063;-53
2021/12/10 07:06:47;;;;;;;9.02;4.50;;;;;;;1.86;96.58;98382.50;5089845;28;20062;-53
2021/12/10 07:09:22;;;;;;;13.63;4.70;;;;;;;1.82;97.10;98383.53;5093964;28;20056;-53
2021/12/10 07:11:55;;;;;;;11.88;4.78;;;;;;;1.73;97.70;98377.78;5100496;28;20120;-52
2021/12/10 07:14:23;;;;;;;13.85;5.13;;;;;;;1.68;98.11;98365.88;5096755;28;20052;-52
2021/12/10 07:16:50;;;;;;;11.80;4.60;;;;;;;1.67;98.25;98362.41;5097804;28;20065;-53
2021/12/10 07:19:17;;;;;;;12.88;4.80;;;;;;;1.64;98.51;98352.09;5096630;28;20048;-56
2021/12/10 07:21:44;;;;;;;13.70;5.07;;;;;;;1.64;98.28;98349.50;5098748;28;20054;-51
2021/12/10 07:24:18;;;;;;;11.90;4.50;;;;;;;1.64;98.38;98354.72;5101232;28;20169;-53
2021/12/10 07:26:51;;;;;;;9.82;5.00;;;;;;;1.64;97.79;98349.50;5095491;27;20484;-53
2021/12/10 07:29:27;;;;;;;15.40;4.60;;;;;;;1.67;97.61;98348.53;5097261;28;20051;-51
2021/12/10 07:31:54;;;;;;;7.47;4.55;;;;;;;1.70;97.05;98341.41;5097587;28;20056;-52
2021/12/10 07:34:22;;;;;;;9.60;3.78;;;;;;;1.66;96.65;98345.06;5093073;28;20230;-52
2021/12/10 07:36:49;;;;;;;12.45;4.90;;;;;;;1.61;97.66;98340.94;5093146;28;20043;-53
2021/12/10 07:39:20;;;;;;;11.68;4.80;;;;;;;1.64;98.48;98344.28;5095275;28;20056;-52
2021/12/10 07:41:51;;;;;;;12.75;4.88;;;;;;;1.80;100.00;98344.44;5096394;28;20120;-52
2021/12/10 07:44:17;;;;;;;13.00;4.50;;;;;;;1.83;99.22;98349.53;5099797;28;20046;-52
2021/12/10 07:46:56;;;;;;;12.52;4.78;;;;;;;1.84;97.71;98353.00;5094683;28;20047;-53
2021/12/10 07:49:31;;;;;;;10.35;4.93;;;;;;;1.89;98.13;98348.44;5098598;28;20474;-52
2021/12/10 07:52:04;;;;;;;10.23;4.40;;;;;;;1.96;97.07;98339.41;5099238;28;20056;-52
2021/12/10 07:54:30;;;;;;;10.73;4.45;;;;;;;2.06;96.94;98332.84;5095135;28;20063;-53
2021/12/10 07:57:04;;;;;;;10.32;4.05;;;;;;;2.10;94.71;98327.41;5090081;28;21273;-53
2021/12/10 07:59:31;;;;;;;9.52;3.97;;;;;;;2.19;94.79;98326.16;5100482;28;20055;-54
2021/12/10 08:01:57;;;;;;;9.15;3.70;;;;;;;2.24;92.92;98324.16;5097405;28;20142;-51
2021/12/10 08:04:42;;;;;;;8.63;3.83;;;;;;;2.23;93.48;98325.06;5102659;28;20052;-54
2021/12/10 08:07:23;;;;;;;11.45;4.40;;;;;;;2.26;93.31;98317.09;5090885;28;20054;-52
2021/12/10 08:09:50;;;;;;;;;;;;;;;2.30;92.28;98334.34;5096403;27;20056;-56
2021/12/10 08:12:16;;;;;;;9.23;3.97;;;;;;;2.39;93.54;98333.03;5101285;28;20471;-51
2021/12/10 08:14:45;;;;;;;10.65;4.10;;;;;;;2.40;91.88;98326.91;5093296;28;20373;-54
2021/12/10 08:17:19;;;;;;;9.80;3.95;;;;;;;2.38;90.91;98331.34;5095957;28;20047;-52
2021/12/10 08:19:48;;;;;;;11.82;3.80;;;;;;;2.42;91.18;98338.97;5101095;28;20044;-53
2021/12/10 08:22:16;;;;;;;7.40;3.90;;;;;;;2.50;91.68;98330.81;5099608;28;20052;-55
2021/12/10 08:24:43;;;;;;;8.70;3.50;;;;;;;2.47;89.42;98328.31;5098604;28;20518;-54
2021/12/10 08:27:18;;;;;;;8.25;3.70;;;;;;;2.47;89.47;98326.56;5096818;28;20044;-52
2021/12/10 08:29:45;;;;;;;9.52;4.07;;;;;;;2.49;89.37;98326.50;5098033;28;20679;-53
2021/12/10 08:32:21;;;;;;;8.55;3.42;;;;;;;2.49;88.77;98323.88;5093492;28;20101;-51
2021/12/10 08:34:53;;;;;;;7.65;3.47;;;;;;;2.43;88.75;98317.16;5102517;28;20043;-55
2021/12/10 08:37:23;;;;;;;9.35;3.30;;;;;;;2.38;88.97;98315.69;5098803;28;20048;-53
2021/12/10 08:39:50;;;;;;;7.70;3.25;;;;;;;2.37;89.46;98314.84;5099641;28;20082;-54
2021/12/10 08:42:19;;;;;;;7.75;3.47;;;;;;;2.45;89.13;98319.72;5096927;28;20050;-51
2021/12/10 08:45:04;;;;;;;7.90;3.65;;;;;;;2.54;88.79;98319.25;5094092;28;20861;-53
2021/12/10 08:47:31;;;;;;;8.38;3.30;;;;;;;2.59;87.53;98308.59;5089473;28;20234;-52
2021/12/10 08:49:58;;;;;;;8.30;3.42;;;;;;;2.70;87.61;98311.53;5092729;28;20134;-52
2021/12/10 08:52:25;;;;;;;5.40;3.05;;;;;;;2.79;87.28;98317.19;5096353;28;20054;-53
2021/12/10 08:55:02;;;;;;;10.02;3.15;;;;;;;2.94;86.62;98306.91;5093499;28;20126;-54
2021/12/10 08:57:56;;;;;;;8.73;2.70;;;;;;;3.07;85.46;98306.22;5092402;28;20492;-52
2021/12/10 09:00:29;;;;;;;13.30;3.30;;;;;;;3.13;84.53;98278.91;5092047;28;20762;-51
2021/12/10 09:02:59;;;;;;;6.28;2.63;;;;;;;3.25;84.15;98293.13;5095962;28;20492;-53
2021/12/10 09:05:39;;;;;;;8.45;2.40;;;;;;;3.21;84.08;98287.19;5093682;28;20043;-51
2021/12/10 09:08:06;;;;;;;5.72;2.72;;;;;;;3.19;83.16;98289.03;5092034;28;20764;-53
2021/12/10 09:10:41;;;;;;;7.88;2.80;;;;;;;3.16;82.54;98292.66;5099525;28;20535;-54
2021/12/10 09:13:20;;;;;;;10.45;3.20;;;;;;;3.16;83.00;98292.66;5098329;28;20051;-52
2021/12/10 09:15:56;;;;;;;5.82;2.60;;;;;;;3.13;82.41;98294.59;5095866;28;20041;-52
2021/12/10 09:18:40;;;;;;;11.50;2.70;;;;;;;3.10;83.00;98285.13;5098387;28;23117;-52
2021/12/10 09:21:26;;;;;;;9.07;2.55;;;;;;;3.16;82.48;98287.44;5100631;28;20126;-53
2021/12/10 09:24:04;;;;;;;6.75;2.42;;;;;;;3.16;82.34;98284.81;5098414;28;20052;-54
2021/12/10 09:26:37;;;;;;;8.85;3.13;;;;;;;3.18;82.81;98282.97;5096838;28;20459;-52
2021/12/10 09:29:13;;;;;;;7.60;2.85;;;;;;;3.21;82.42;98288.97;5099658;28;20386;-53
2021/12/10 09:31:44;;;;;;;7.55;2.80;;;;;;;3.23;82.13;98280.13;5100925;28;20075;-52
2021/12/10 09:34:18;;;;;;;9.60;3.40;;;;;;;3.24;81.79;98286.22;5097817;28;20044;-51
2021/12/10 09:36:50;;;;;;;8.57;2.80;;;;;;;3.22;81.42;98278.44;5090916;28;20051;-52
2021/12/10 09:39:21;;;;;;;6.43;2.70;;;;;;;3.28;81.99;98290.38;5102424;28;20044;-52
2021/12/10 09:41:47;;;;;;;;;;;;;;;3.35;81.18;98278.66;5099378;28;20432;-51
2021/12/10 09:44:24;;;;;;;9.82;2.70;;;;;;;3.50;80.79;98283.09;5099172;28;19919;-52
2021/12/10 09:47:07;;;;;;;7.15;2.78;;;;;;;3.69;81.17;98280.34;5097925;28;20062;-51
2021/12/10 09:49:39;;;;;;;10.20;2.95;;;;;;;3.85;79.75;98273.38;5104413;28;20044;-57
2021/12/10 09:52:12;;;;;;;11.10;3.05;;;;;;;3.95;78.44;98258.00;5105713;28;20048;-54
2021/12/10 09:54:49;;;;;;;9.30;3.47;;;;;;;4.01;77.65;98255.06;5102853;27;20116;-51
2021/12/10 09:57:28;;;;;;;6.38;2.80;;;;;;;4.03;77.72;98251.44;5100928;28;20047;-51
2021/12/10 10:00:44;;;;;;;6.20;2.63;;;;;;;4.21;76.26;98262.69;5105018;28;20508;-52
2021/12/10 10:03:14;;;;;;;13.15;3.15;;;;;;;4.31;76.71;98252.53;5099503;28;20058;-52
2021/12/10 10:05:49;;;;;;;7.30;2.75;;;;;;;4.38;75.74;98248.66;5103036;28;20039;-52
2021/12/10 10:08:22;;;;;;;9.65;2.85;;;;;;;4.52;74.10;98244.34;5102025;28;20054;-52
2021/12/10 10:11:04;;;;;;;6.53;2.65;;;;;;;4.60;75.02;98233.41;5103091;28;20050;-53
2021/12/10 10:13:37;;;;;;;8.95;2.60;;;;;;;4.69;74.16;98232.03;5106606;28;20051;-53
2021/12/10 10:16:06;;;;;;;6.00;2.45;;;;;;;4.73;74.21;98231.75;5098304;28;20224;-54
2021/12/10 10:18:38;;;;;;;6.65;2.60;;;;;;;4.80;72.50;98224.38;5098154;28;20086;-53
2021/12/10 10:21:20;;;;;;;5.38;2.10;;;;;;;4.74;72.45;98211.63;5105709;28;20039;-54
2021/12/10 10:23:50;;;;;;;6.40;2.45;;;;;;;4.57;71.36;98210.81;5106191;28;20055;-52
2021/12/10 10:26:33;;;;;;;7.90;2.30;;;;;;;4.65;72.26;98215.63;5103876;28;20075;-53
2021/12/10 10:29:11;;;;;;;6.70;2.47;;;;;;;4.76;73.52;98204.50;5094640;28;20135;-52
2021/12/10 10:31:46;;;;;;;5.43;2.53;;;;;;;4.94;71.79;98209.53;5103755;28;20423;-53
2021/12/10 10:34:13;;;;;;;7.00;2.70;;;;;;;4.98;71.95;98204.13;5104506;28;20051;-54
2021/12/10 10:36:43;;;;;;;7.38;2.70;;;;;;;4.94;71.96;98198.19;5100137;28;20118;-53
2021/12/10 10:39:17;;;;;;;6.35;2.60;;;;;;;4.93;71.92;98207.00;5103374;28;20058;-51
2021/12/10 10:41:48;;;;;;;7.43;2.53;;;;;;;4.89;71.70;98198.47;5095231;28;20047;-53
2021/12/10 10:44:17;;;;;;;6.68;2.45;;;;;;;4.94;71.57;98193.78;5098505;28;20051;-52
2021/12/10 10:47:09;;;;;;;8.88;2.60;;;;;;;4.90;71.66;98191.44;5098603;28;20191;-53
2021/12/10 10:49:48;;;;;;;6.55;2.38;;;;;;;4.94;69.30;98185.09;5099323;28;20741;-52
2021/12/10 10:52:31;;;;;;;9.00;3.22;;;;;;;4.86;70.51;98195.19;5099640;28;20051;-53
2021/12/10 10:55:20;;;;;;;5.85;2.38;;;;;;;4.89;70.55;98187.13;5101680;28;20059;-52
2021/12/10 10:58:11;;;;;;;7.78;2.53;;;;;;;4.96;69.77;98190.25;5094325;28;20054;-52
2021/12/10 11:01:31;;;;;;;5.40;2.80;;;;;;;4.98;69.32;98183.97;5100296;28;20047;-52
2021/12/10 11:04:26;;;;;;;;;;;;;;;5.01;69.26;98185.56;5083528;28;20529;-52
2021/12/10 11:07:08;;;;;;;7.00;3.15;;;;;;;5.03;69.76;98188.97;5094538;28;19939;-54
2021/12/10 11:09:43;;;;;;;6.70;3.00;;;;;;;5.11;69.00;98184.09;5100016;28;20047;-53
2021/12/10 11:12:20;;;;;;;8.43;3.22;;;;;;;5.21;68.75;98188.69;5098041;28;20040;-53
2021/12/10 11:14:51;;;;;;;7.20;2.75;;;;;;;5.35;67.96;98187.88;5118319;27;20052;-53
2021/12/10 11:17:31;;;;;;;5.70;2.08;;;;;;;5.34;66.66;98177.47;5094917;28;20050;-53
2021/12/10 11:20:10;;;;;;;6.07;2.42;;;;;;;5.19;66.63;98187.94;5102811;28;20495;-59
2021/12/10 11:22:53;;;;;;;7.38;2.30;;;;;;;5.15;66.35;98172.47;5099957;28;20058;-55
2021/12/10 11:25:32;;;;;;;3.85;2.20;;;;;;;5.10;66.76;98174.53;5098062;28;20576;-55
2021/12/10 11:28:25;;;;;;;6.68;2.65;;;;;;;5.19;66.49;98180.06;5097002;28;20047;-52
2021/12/10 11:31:11;;;;;;;4.82;2.60;;;;;;;5.20;67.27;98165.16;5095866;28;20051;-53
2021/12/10 11:34:01;;;;;;;5.22;2.33;;;;;;;5.29;66.73;98182.97;5099310;28;20056;-54
2021/12/10 11:36:36;;;;;;;;;;;;;;;5.24;67.35;98180.63;5098352;28;20050;-53
2021/12/10 11:39:04;;;;;;;7.55;3.25;;;;;;;5.34;67.22;98167.81;5097122;28;20019;-53
2021/12/10 11:41:38;;;;;;;7.30;2.92;;;;;;;5.25;67.40;98173.59;5103184;28;20047;-54
2021/12/10 11:47:39;;;;;;;8.55;3.00;;;;;;;5.09;66.46;98165.81;5101254;28;20051;-53
2021/12/10 11:49:41;;;;;;;10.13;2.92;;;;;;;5.07;65.25;98167.69;5090707;28;20056;-54
2021/12/10 11:52:29;;;;;;;9.27;3.10;;;;;;;4.98;66.17;98163.00;5096776;28;20048;-52
2021/12/10 11:55:07;;;;;;;5.88;3.10;;;;;;;4.95;66.42;98157.94;5101584;28;20055;-53
2021/12/10 11:57:50;;;;;;;8.88;2.55;;;;;;;4.91;65.58;98156.41;5092468;28;20051;-52
2021/12/10 12:00:31;;;;;;;15.57;3.35;;;;;;;4.85;66.81;98162.03;5095786;28;20048;-55
2021/12/10 12:03:03;;;;;;;8.80;3.65;;;;;;;4.79;68.32;98158.00;5093697;28;20094;-53
2021/12/10 12:05:38;;;;;;;7.10;2.30;;;;;;;4.71;66.88;98167.25;5099560;28;20044;-52
2021/12/10 12:08:13;;;;;;;7.13;2.63;;;;;;;4.61;65.98;98164.31;5097039;28;20043;-55
2021/12/10 12:10:46;;;;;;;6.70;2.70;;;;;;;4.53;67.02;98156.06;5098976;28;20043;-55
2021/12/10 12:15:56;;;;;;;8.88;2.75;;;;;;;4.49;67.88;98146.69;5103501;28;20044;-53
2021/12/10 12:18:31;;;;;;;10.13;2.88;;;;;;;4.43;68.61;98157.50;5093375;28;20135;-52
2021/12/10 12:27:10;;;;;;;8.70;2.67;;;;;;;4.52;68.41;98154.38;5098488;28;20055;-53
2021/12/10 12:30:06;;;;;;;7.07;3.08;;;;;;;4.44;68.98;98154.81;5096705;28;20062;-53
2021/12/10 12:32:53;;;;;;;7.93;2.42;;;;;;;4.34;67.88;98148.41;5100806;28;20067;-52